首页
METAR-TAF:

METAR-TAF

机场 :

邓迪, 苏格兰

纬度: 56-27N, 经度: 003-01W, 海拔: 4米

当前天气观测

该预报发布于6小时和7分钟前的19:20 UTC
风速2节,风向西转西北
温度 6°C
湿度 93%
气压 999 hPa
能见度10公里或以上
少量云层高于3000英尺

METAR: EGPN 161920Z 30002KT 9999 FEW030 06/05 Q0999

时间: 02:27 (01:27 UTC)

预报

该预报发布于8小时和22分钟前的17:05 UTC
预报有效从16日的 18点(UTC)到 16日的 20点(UTC)
风速9节,风向西
能见度10公里或以上
少量云层高于1500英尺

TAF: EGPN 161705Z 1618/1620 27009KT 9999 FEW015

超过4000个机场的气象观测和天气预报(METAR&TAF报告)。

可查询的气象台以黄色和红色小点在地图上表示。

将鼠标移到小点上方,可查看气象台名称。

然后点击查看天气观测和预报。

如需切换地图:点击带黑十字的绿色按钮放大地图;点击带横线的绿色按钮缩小地图;或者点击绿色箭头查看邻近地区的地图。


METAR-TAF: